Time;durP1;ratioP1;P1;durP2;ratioP2;P2;SDS_P1;SDS_P2;PMS_P1;PMS_P2;Temp;Humidity;BMP_temperature;BMP_pressure;BME280_temperature;BME280_humidity;BME280_pressure;Samples;Min_cycle;Max_cycle;Signal;HPM_P1;HPM_P2
2023/10/23 00:00:52;;;;;;;8.80;3.03;;;;;;;10.09;100.00;92535.44;6281409;22;20468;-81
2023/10/23 00:03:18;;;;;;;15.80;3.58;;;;;;;10.10;100.00;92542.97;6281685;22;20018;-80
2023/10/23 00:05:44;;;;;;;5.53;3.15;;;;;;;10.09;100.00;92544.06;6309295;22;19996;-81
2023/10/23 00:08:09;;;;;;;7.90;3.03;;;;;;;10.06;100.00;92541.97;6307719;22;20103;-81
2023/10/23 00:10:35;;;;;;;11.25;3.45;;;;;;;10.04;100.00;92544.09;6256138;22;20011;-81
2023/10/23 00:13:01;;;;;;;9.13;3.25;;;;;;;10.06;100.00;92547.22;6280553;22;20007;-82
2023/10/23 00:15:26;;;;;;;7.45;2.72;;;;;;;10.05;100.00;92550.91;6280559;22;20090;-82
2023/10/23 00:17:52;;;;;;;8.57;2.92;;;;;;;10.05;100.00;92553.50;6280096;22;20026;-81
2023/10/23 00:20:18;;;;;;;10.27;2.80;;;;;;;10.04;100.00;92559.78;6308161;22;20011;-81
2023/10/23 00:22:43;;;;;;;7.78;2.80;;;;;;;10.01;100.00;92555.13;6307746;22;20008;-81
2023/10/23 00:25:09;;;;;;;9.55;3.28;;;;;;;10.01;100.00;92555.91;6255553;22;20012;-80
2023/10/23 00:27:34;;;;;;;6.95;2.75;;;;;;;9.96;100.00;92552.59;6307884;22;20187;-81
2023/10/23 00:30:00;;;;;;;7.75;3.13;;;;;;;9.98;100.00;92555.69;6307937;22;20337;-81
2023/10/23 00:32:26;;;;;;;5.97;2.63;;;;;;;9.99;100.00;92562.47;6254570;22;20501;-81
2023/10/23 00:34:52;;;;;;;10.52;3.20;;;;;;;9.95;100.00;92564.09;6279736;22;20262;-81
2023/10/23 00:37:17;;;;;;;8.73;3.03;;;;;;;9.94;100.00;92559.94;6307455;22;20007;-80
2023/10/23 00:39:43;;;;;;;9.18;2.97;;;;;;;9.92;100.00;92562.03;6307278;22;20003;-81
2023/10/23 00:42:09;;;;;;;7.00;2.70;;;;;;;9.88;100.00;92550.56;6308712;22;20011;-80
2023/10/23 00:44:35;;;;;;;8.48;2.70;;;;;;;9.84;100.00;92554.81;6281389;22;20497;-80
2023/10/23 00:47:01;;;;;;;7.38;2.75;;;;;;;9.78;100.00;92567.94;6281664;22;20018;-81
2023/10/23 00:49:27;;;;;;;8.57;3.00;;;;;;;9.77;100.00;92552.53;6281346;22;20011;-82
2023/10/23 00:51:53;;;;;;;7.47;2.88;;;;;;;9.73;100.00;92544.47;6279397;22;20220;-81
2023/10/23 00:54:20;;;;;;;10.80;2.80;;;;;;;9.73;100.00;92559.38;6307803;22;20073;-80
2023/10/23 00:56:47;;;;;;;7.03;2.67;;;;;;;9.73;100.00;92554.94;6307740;22;20076;-81
2023/10/23 00:59:13;;;;;;;8.50;2.70;;;;;;;9.71;100.00;92545.81;6308440;22;20007;-81
2023/10/23 01:01:39;;;;;;;6.18;2.90;;;;;;;9.70;100.00;92552.84;6307309;22;19999;-81
2023/10/23 01:04:05;;;;;;;13.00;4.85;;;;;;;9.73;100.00;92560.16;6280870;22;20019;-80
2023/10/23 01:06:31;;;;;;;8.93;3.97;;;;;;;9.69;100.00;92553.94;6280546;22;20019;-80
2023/10/23 01:08:57;;;;;;;8.73;3.08;;;;;;;9.68;100.00;92555.00;6308968;22;20385;-80
2023/10/23 01:11:23;;;;;;;10.80;3.67;;;;;;;9.67;100.00;92550.81;6308247;22;20348;-80
2023/10/23 01:13:49;;;;;;;7.97;3.25;;;;;;;9.67;100.00;92544.81;6308371;22;20061;-80
2023/10/23 01:16:15;;;;;;;7.90;2.97;;;;;;;9.67;100.00;92536.97;6307815;22;20003;-81
2023/10/23 01:18:41;;;;;;;12.23;2.90;;;;;;;9.70;100.00;92550.25;6280206;22;20011;-80
2023/10/23 01:21:06;;;;;;;7.22;3.00;;;;;;;9.72;100.00;92544.75;6308989;22;20400;-80
2023/10/23 01:23:36;;;;;;;7.00;2.85;;;;;;;9.75;100.00;92541.59;6307666;22;19999;-81
2023/10/23 01:26:02;;;;;;;8.85;3.03;;;;;;;9.79;100.00;92545.97;6308464;22;20022;-81
2023/10/23 01:28:28;;;;;;;13.77;2.90;;;;;;;9.80;100.00;92550.16;6281316;22;20007;-81
2023/10/23 01:30:54;;;;;;;10.35;3.33;;;;;;;9.82;100.00;92546.47;6281904;22;20443;-81
2023/10/23 01:33:19;;;;;;;9.38;3.20;;;;;;;9.84;100.00;92544.34;6308022;22;20011;-81
2023/10/23 01:35:46;;;;;;;12.50;3.33;;;;;;;9.84;100.00;92545.16;6280488;22;20360;-80
2023/10/23 01:38:13;;;;;;;10.77;3.08;;;;;;;9.82;100.00;92541.22;6254675;22;20019;-80
2023/10/23 01:40:39;;;;;;;6.43;3.25;;;;;;;9.88;100.00;92545.34;6280317;22;20015;-81
2023/10/23 01:43:04;;;;;;;13.07;3.03;;;;;;;9.88;100.00;92540.91;6280425;22;20467;-81
2023/10/23 01:45:30;;;;;;;9.32;3.15;;;;;;;9.91;100.00;92531.75;6280915;22;20047;-81
2023/10/23 01:47:56;;;;;;;9.27;2.78;;;;;;;9.92;100.00;92528.81;6280574;22;20069;-81
2023/10/23 01:50:21;;;;;;;7.40;3.75;;;;;;;9.95;100.00;92540.56;6308658;22;20011;-80
2023/10/23 01:52:49;;;;;;;6.07;2.63;;;;;;;9.97;100.00;92543.66;6281634;22;20007;-80
2023/10/23 01:55:15;;;;;;;6.97;2.80;;;;;;;9.97;100.00;92534.00;6254328;22;20023;-80
2023/10/23 01:57:42;;;;;;;7.15;3.22;;;;;;;9.98;100.00;92529.56;6309032;22;20317;-81
2023/10/23 02:00:10;;;;;;;8.82;3.20;;;;;;;9.96;100.00;92527.22;6280908;22;19999;-81
2023/10/23 02:02:40;;;;;;;6.95;3.30;;;;;;;9.97;100.00;92536.63;6280311;22;20597;-81
2023/10/23 02:05:06;;;;;;;7.70;3.25;;;;;;;9.97;100.00;92538.44;6307454;22;20011;-81
2023/10/23 02:07:32;;;;;;;13.15;3.63;;;;;;;9.93;100.00;92526.97;6307676;22;20101;-81
2023/10/23 02:09:57;;;;;;;6.85;3.03;;;;;;;9.97;100.00;92527.97;6254947;22;20007;-81
2023/10/23 02:12:25;;;;;;;6.97;3.20;;;;;;;9.97;100.00;92525.38;6280981;22;20062;-81
2023/10/23 02:14:52;;;;;;;10.80;2.75;;;;;;;9.97;100.00;92539.25;6281044;22;20090;-80
2023/10/23 02:17:22;;;;;;;8.68;2.80;;;;;;;9.95;100.00;92535.31;6307982;22;20019;-81
2023/10/23 02:19:47;;;;;;;10.43;2.88;;;;;;;9.97;100.00;92541.06;6281101;22;20040;-80
2023/10/23 02:22:13;;;;;;;8.93;3.10;;;;;;;9.97;100.00;92538.44;6279928;22;20007;-81
2023/10/23 02:24:39;;;;;;;10.52;2.60;;;;;;;9.95;100.00;92527.47;6254050;22;20072;-80
2023/10/23 02:27:05;;;;;;;10.13;2.85;;;;;;;9.96;100.00;92527.22;6308165;22;20003;-80
2023/10/23 02:29:31;;;;;;;14.38;3.17;;;;;;;9.97;100.00;92527.97;6307172;22;20011;-81
2023/10/23 02:31:57;;;;;;;6.68;2.63;;;;;;;9.97;100.00;92530.59;6307903;22;19999;-80
2023/10/23 02:34:22;;;;;;;10.90;3.03;;;;;;;9.96;100.00;92531.66;6307722;22;20015;-80
2023/10/23 02:36:48;;;;;;;7.18;3.22;;;;;;;9.94;100.00;92528.56;6308862;22;20054;-82
2023/10/23 02:39:15;;;;;;;6.25;2.80;;;;;;;9.94;100.00;92531.16;6307736;22;20300;-82
2023/10/23 02:41:42;;;;;;;5.63;2.80;;;;;;;9.91;100.00;92529.13;6307660;22;19999;-81
2023/10/23 02:44:08;;;;;;;7.47;4.03;;;;;;;9.90;100.00;92538.00;6280468;22;20357;-81
2023/10/23 02:46:38;;;;;;;6.05;3.00;;;;;;;9.91;100.00;92547.44;6278308;22;20064;-81
2023/10/23 02:49:04;;;;;;;13.77;3.40;;;;;;;10.00;100.00;92554.34;6279424;22;20011;-80
2023/10/23 02:51:30;;;;;;;11.65;3.67;;;;;;;9.84;100.00;92550.38;6278596;22;20013;-80
2023/10/23 02:53:56;;;;;;;12.55;4.00;;;;;;;9.73;100.00;92562.00;6278662;22;20047;-81
2023/10/23 02:56:22;;;;;;;8.98;3.58;;;;;;;9.69;100.00;92556.53;6278697;22;19999;-81
2023/10/23 02:58:47;;;;;;;9.57;3.55;;;;;;;9.69;100.00;92559.16;6278586;22;20018;-80
2023/10/23 03:01:21;;;;;;;14.75;3.97;;;;;;;9.70;100.00;92559.94;6306707;22;20004;-81
2023/10/23 03:03:48;;;;;;;8.80;3.60;;;;;;;9.69;100.00;92556.53;6305316;22;20503;-81
2023/10/23 03:06:13;;;;;;;7.85;3.40;;;;;;;9.73;100.00;92554.16;6277363;22;20015;-81
2023/10/23 03:08:39;;;;;;;13.27;3.83;;;;;;;9.74;100.00;92556.47;6305671;22;20019;-81
2023/10/23 03:11:08;;;;;;;12.90;3.60;;;;;;;9.75;100.00;92563.28;6277595;22;20330;-80
2023/10/23 03:13:34;;;;;;;6.85;3.63;;;;;;;9.77;100.00;92552.53;6304767;22;20011;-80
2023/10/23 03:16:00;;;;;;;10.15;3.72;;;;;;;9.76;100.00;92570.06;6277150;22;20014;-80
2023/10/23 03:18:26;;;;;;;7.05;3.33;;;;;;;9.78;100.00;92572.41;6306320;22;20003;-81
2023/10/23 03:20:52;;;;;;;9.02;4.00;;;;;;;9.75;100.00;92557.28;6307287;22;20059;-81
2023/10/23 03:23:17;;;;;;;9.60;3.20;;;;;;;9.77;100.00;92565.59;6280389;22;20018;-81
2023/10/23 03:25:43;;;;;;;9.77;3.20;;;;;;;9.78;100.00;92562.72;6306406;22;20003;-81
2023/10/23 03:28:09;;;;;;;8.27;3.10;;;;;;;9.78;100.00;92562.72;6306053;22;20011;-81
2023/10/23 03:30:34;;;;;;;6.00;2.90;;;;;;;9.76;100.00;92559.59;6278720;22;20094;-81
2023/10/23 03:33:00;;;;;;;8.75;3.47;;;;;;;9.76;100.00;92558.81;6278933;22;20018;-81
2023/10/23 03:35:26;;;;;;;8.30;3.10;;;;;;;9.73;100.00;92544.47;6253751;22;20034;-82
2023/10/23 03:37:52;;;;;;;7.00;3.10;;;;;;;9.71;100.00;92558.88;6279873;22;20384;-79
2023/10/23 03:40:19;;;;;;;8.32;3.05;;;;;;;9.69;100.00;92561.78;6278960;22;20007;-81
2023/10/23 03:42:49;;;;;;;8.30;3.05;;;;;;;9.68;100.00;92559.44;6306853;22;20022;-81
2023/10/23 03:45:15;;;;;;;9.02;3.17;;;;;;;9.68;100.00;92546.34;6224166;22;1308411;-81
2023/10/23 03:47:40;;;;;;;10.18;3.50;;;;;;;9.66;100.00;92549.28;6308395;22;20027;-81
2023/10/23 03:50:06;;;;;;;9.43;2.95;;;;;;;9.66;100.00;92548.47;6279800;22;20372;-81
2023/10/23 03:52:32;;;;;;;8.05;3.17;;;;;;;9.65;100.00;92547.69;6308625;22;20011;-82
2023/10/23 03:54:57;;;;;;;8.73;2.92;;;;;;;9.65;100.00;92539.84;6307153;22;20007;-80
2023/10/23 03:57:23;;;;;;;7.53;3.38;;;;;;;9.62;100.00;92545.66;6307413;22;20011;-80
2023/10/23 03:59:48;;;;;;;9.45;3.30;;;;;;;9.63;100.00;92543.81;6279824;22;20045;-80
2023/10/23 04:02:14;;;;;;;8.48;3.30;;;;;;;9.62;100.00;92555.34;6308441;22;20018;-80
2023/10/23 04:04:40;;;;;;;7.05;3.42;;;;;;;9.60;100.00;92558.22;6308299;22;19995;-81
2023/10/23 04:07:05;;;;;;;6.93;3.10;;;;;;;9.59;100.00;92554.03;6307309;22;20011;-81
2023/10/23 04:09:31;;;;;;;8.13;3.47;;;;;;;9.59;100.00;92560.06;6306689;22;20364;-81
2023/10/23 04:11:56;;;;;;;5.35;2.97;;;;;;;9.57;100.00;92556.94;6308585;22;20015;-81
2023/10/23 04:14:22;;;;;;;11.45;3.75;;;;;;;9.58;100.00;92557.72;6280352;22;20007;-81
2023/10/23 04:16:48;;;;;;;14.93;3.20;;;;;;;9.57;100.00;92562.16;6279512;22;20015;-81
2023/10/23 04:19:13;;;;;;;10.43;3.50;;;;;;;9.53;100.00;92549.94;6279971;22;20011;-80
2023/10/23 04:21:39;;;;;;;9.23;3.50;;;;;;;9.57;100.00;92556.16;6279451;22;20433;-81
2023/10/23 04:24:11;;;;;;;10.27;3.10;;;;;;;9.53;100.00;92552.53;6280118;22;20026;-81
2023/10/23 04:26:37;;;;;;;14.45;3.20;;;;;;;9.49;100.00;92560.16;6280135;22;20019;-80
2023/10/23 04:29:02;;;;;;;8.05;3.28;;;;;;;9.49;100.00;92556.75;6306980;22;19999;-82
2023/10/23 04:31:28;;;;;;;7.88;3.22;;;;;;;9.47;100.00;92553.66;6307558;22;20490;-80
2023/10/23 04:33:54;;;;;;;10.75;3.50;;;;;;;9.46;100.00;92559.94;6306908;22;20330;-80
2023/10/23 04:36:20;;;;;;;8.43;2.90;;;;;;;9.47;100.00;92561.47;6307016;22;20064;-80
2023/10/23 04:38:47;;;;;;;10.15;3.20;;;;;;;9.48;100.00;92549.97;6279817;22;20003;-81
2023/10/23 04:41:13;;;;;;;12.85;3.72;;;;;;;9.48;100.00;92548.16;6305243;22;20025;-80
2023/10/23 04:43:39;;;;;;;8.70;3.22;;;;;;;9.49;100.00;92546.31;6278313;22;19995;-82
2023/10/23 04:46:04;;;;;;;9.32;3.25;;;;;;;9.50;100.00;92553.06;6277792;22;20468;-81
2023/10/23 04:48:30;;;;;;;10.18;3.55;;;;;;;9.51;100.00;92552.03;6306602;22;20022;-81
2023/10/23 04:50:59;;;;;;;5.63;3.00;;;;;;;9.50;100.00;92551.28;6278112;22;20743;-83
2023/10/23 04:53:26;;;;;;;9.98;3.60;;;;;;;9.52;100.00;92553.59;6304898;22;20455;-82
2023/10/23 04:55:52;;;;;;;7.38;3.10;;;;;;;9.51;100.00;92544.19;6304710;22;20401;-83
2023/10/23 04:58:18;;;;;;;7.32;3.13;;;;;;;9.50;100.00;92547.84;6278148;22;20104;-81
2023/10/23 05:00:44;;;;;;;11.45;3.53;;;;;;;9.52;100.00;92553.59;6304061;22;20567;-84
2023/10/23 05:03:09;;;;;;;12.00;3.42;;;;;;;9.52;100.00;92558.81;6306705;22;20082;-81
2023/10/23 05:05:38;;;;;;;10.70;3.00;;;;;;;9.53;100.00;92558.53;6305458;22;20030;-81
2023/10/23 05:08:04;;;;;;;12.52;3.53;;;;;;;9.53;100.00;92565.59;6305776;22;20333;-80
2023/10/23 05:10:30;;;;;;;9.50;4.45;;;;;;;9.52;100.00;92567.41;6305834;22;20378;-82
2023/10/23 05:12:56;;;;;;;8.88;4.85;;;;;;;9.54;100.00;92569.78;6279279;22;19999;-81
2023/10/23 05:15:25;;;;;;;18.35;6.60;;;;;;;9.54;100.00;92561.94;6230192;22;20079;-81
2023/10/23 05:17:50;;;;;;;10.00;5.82;;;;;;;9.53;100.00;92560.38;6307740;22;20465;-81
2023/10/23 05:20:16;;;;;;;12.57;5.43;;;;;;;9.56;100.00;92567.66;6281721;22;20022;-81
2023/10/23 05:22:45;;;;;;;12.23;5.45;;;;;;;9.56;100.00;92573.66;6307504;22;20425;-81
2023/10/23 05:25:11;;;;;;;10.25;4.40;;;;;;;9.57;100.00;92571.84;6280156;22;20011;-81
2023/10/23 05:27:37;;;;;;;9.13;4.50;;;;;;;9.57;100.00;92571.84;6307437;22;20068;-80
2023/10/23 05:30:04;;;;;;;12.15;5.38;;;;;;;9.56;100.00;92571.03;6307533;22;20015;-81
2023/10/23 05:32:32;;;;;;;12.35;5.03;;;;;;;9.56;100.00;92576.28;6253982;22;20008;-81
2023/10/23 05:34:57;;;;;;;9.40;5.35;;;;;;;9.57;100.00;92577.84;6307609;22;20480;-81
2023/10/23 05:37:23;;;;;;;11.88;5.28;;;;;;;9.58;100.00;92589.06;6279435;22;20061;-82
2023/10/23 05:39:48;;;;;;;7.53;3.72;;;;;;;9.57;100.00;92592.75;6306810;22;20113;-80
2023/10/23 05:42:14;;;;;;;11.63;4.38;;;;;;;9.57;100.00;92597.97;6279151;22;20333;-82
2023/10/23 05:44:40;;;;;;;23.83;4.93;;;;;;;9.59;100.00;92606.28;6307277;22;20008;-80
2023/10/23 05:47:06;;;;;;;10.38;3.92;;;;;;;9.56;100.00;92597.19;6307631;22;20015;-82
2023/10/23 05:49:34;;;;;;;8.75;3.90;;;;;;;9.59;100.00;92608.91;6279517;22;20015;-82
2023/10/23 05:52:00;;;;;;;9.50;3.92;;;;;;;9.58;100.00;92607.38;6307262;22;20014;-81
2023/10/23 05:54:25;;;;;;;14.82;4.18;;;;;;;9.61;100.00;92606.81;6279573;22;20014;-79
2023/10/23 05:56:51;;;;;;;12.50;3.80;;;;;;;9.57;100.00;92603.22;6307766;22;20031;-81
2023/10/23 05:59:16;;;;;;;7.00;3.72;;;;;;;9.61;100.00;92609.41;6279561;22;20030;-80
2023/10/23 06:01:42;;;;;;;8.43;3.80;;;;;;;9.63;100.00;92615.16;6307502;22;20000;-82
2023/10/23 06:04:07;;;;;;;8.90;3.55;;;;;;;9.62;100.00;92623.28;6307667;22;20007;-81
2023/10/23 06:06:33;;;;;;;9.65;3.95;;;;;;;9.63;100.00;92622.22;6307301;22;19999;-79
2023/10/23 06:08:59;;;;;;;9.30;3.75;;;;;;;9.64;100.00;92623.78;6280657;22;20625;-81
2023/10/23 06:11:25;;;;;;;6.35;3.97;;;;;;;9.63;100.00;92623.00;6281867;22;20007;-82
2023/10/23 06:13:50;;;;;;;8.18;3.92;;;;;;;9.63;100.00;92615.16;6254279;22;20045;-82
2023/10/23 06:16:16;;;;;;;6.18;3.35;;;;;;;9.62;100.00;92621.44;6280429;22;20011;-81
2023/10/23 06:18:42;;;;;;;9.65;3.97;;;;;;;9.67;100.00;92626.63;6281395;22;20028;-81
2023/10/23 06:21:07;;;;;;;11.88;4.43;;;;;;;9.75;100.00;92620.78;6307780;22;20000;-82
2023/10/23 06:23:39;;;;;;;11.98;3.85;;;;;;;9.91;100.00;92624.03;6308273;22;20017;-81
2023/10/23 06:26:08;;;;;;;8.75;3.50;;;;;;;9.92;100.00;92624.81;6307114;22;20326;-80
2023/10/23 06:28:34;;;;;;;8.65;3.42;;;;;;;9.94;100.00;92622.69;6279123;22;20034;-79
2023/10/23 06:31:07;;;;;;;15.80;3.85;;;;;;;9.94;100.00;92633.16;6253373;22;20011;-80
2023/10/23 06:33:35;;;;;;;8.30;3.58;;;;;;;9.94;100.00;92639.16;6278621;22;20394;-79
2023/10/23 06:36:00;;;;;;;8.52;3.50;;;;;;;9.95;100.00;92637.31;6305084;22;19999;-79
2023/10/23 06:38:26;;;;;;;7.18;3.67;;;;;;;9.96;100.00;92636.25;6279788;22;20038;-79
2023/10/23 06:40:52;;;;;;;10.45;3.63;;;;;;;9.97;100.00;92640.44;6306090;22;19999;-79
2023/10/23 06:43:17;;;;;;;7.50;3.47;;;;;;;9.98;100.00;92645.38;6306347;22;20012;-79
2023/10/23 06:45:43;;;;;;;9.80;3.30;;;;;;;9.96;100.00;92651.97;6252182;22;20035;-80
2023/10/23 06:48:09;;;;;;;11.20;3.75;;;;;;;9.97;100.00;92658.72;6280493;22;20015;-80
2023/10/23 06:50:35;;;;;;;7.03;3.63;;;;;;;10.00;100.00;92653.75;6254180;22;20068;-80
2023/10/23 06:53:00;;;;;;;11.85;3.63;;;;;;;10.05;100.00;92660.75;6253720;22;20369;-80
2023/10/23 06:55:29;;;;;;;8.50;3.55;;;;;;;10.09;100.00;92661.75;6256419;22;20035;-80
2023/10/23 06:57:54;;;;;;;9.68;3.65;;;;;;;10.14;100.00;92668.78;6280608;22;20048;-80
2023/10/23 07:00:20;;;;;;;9.80;3.45;;;;;;;10.18;100.00;92669.78;6308991;22;19999;-79
2023/10/23 07:02:49;;;;;;;11.57;3.83;;;;;;;10.21;100.00;92672.59;6309336;22;20011;-80
2023/10/23 07:05:15;;;;;;;15.07;4.20;;;;;;;10.25;100.00;92680.69;6309428;22;20092;-80
2023/10/23 07:07:41;;;;;;;8.48;3.85;;;;;;;10.28;100.00;92680.13;6309703;22;20007;-80
2023/10/23 07:10:07;;;;;;;8.82;3.85;;;;;;;10.28;100.00;92677.50;6281476;22;20336;-79
2023/10/23 07:12:33;;;;;;;6.35;3.47;;;;;;;10.33;100.00;92684.53;6281919;22;20036;-79
2023/10/23 07:14:58;;;;;;;12.77;4.57;;;;;;;10.36;100.00;92689.22;6308331;22;20004;-80
2023/10/23 07:17:24;;;;;;;10.13;3.90;;;;;;;10.36;100.00;92686.63;6255634;22;20076;-79
2023/10/23 07:19:51;;;;;;;20.17;4.50;;;;;;;10.41;100.00;92689.94;6308849;22;20005;-79
2023/10/23 07:22:17;;;;;;;6.90;3.70;;;;;;;10.46;100.00;92701.41;6256927;22;20021;-78
2023/10/23 07:24:43;;;;;;;11.43;3.58;;;;;;;10.47;100.00;92698.53;6310080;22;19999;-79
2023/10/23 07:27:11;;;;;;;10.68;3.65;;;;;;;10.50;100.00;92705.81;6281544;22;20011;-79
2023/10/23 07:29:37;;;;;;;10.10;3.90;;;;;;;10.52;100.00;92711.53;6308960;22;20026;-79
2023/10/23 07:32:03;;;;;;;12.70;3.92;;;;;;;10.55;100.00;92715.44;6307851;22;20510;-80
2023/10/23 07:34:29;;;;;;;10.88;4.13;;;;;;;10.56;100.00;92722.22;6229551;22;20098;-80
2023/10/23 07:36:55;;;;;;;11.57;4.35;;;;;;;10.57;100.00;92721.19;6281884;22;20023;-80
2023/10/23 07:39:20;;;;;;;12.40;3.95;;;;;;;10.58;100.00;92720.91;6281186;22;20023;-79
2023/10/23 07:41:46;;;;;;;11.85;3.70;;;;;;;10.60;100.00;92718.00;6280915;22;20016;-79
2023/10/23 07:44:12;;;;;;;14.68;4.05;;;;;;;10.65;100.00;92717.16;6275463;22;20323;-79
2023/10/23 07:46:37;;;;;;;8.25;3.58;;;;;;;10.66;100.00;92719.50;6276452;22;20031;-79
2023/10/23 07:49:03;;;;;;;5.40;3.25;;;;;;;10.69;100.00;92726.00;6275545;22;20091;-80
2023/10/23 07:51:28;;;;;;;11.60;4.32;;;;;;;10.70;100.00;92723.13;6276655;22;20090;-79
2023/10/23 07:53:54;;;;;;;11.50;3.95;;;;;;;10.74;100.00;92723.31;6277381;22;20011;-79
2023/10/23 07:56:20;;;;;;;7.95;3.63;;;;;;;10.78;100.00;92724.31;6276299;22;20308;-79
2023/10/23 07:58:45;;;;;;;6.85;3.63;;;;;;;10.79;100.00;92731.91;6275987;22;20003;-79
2023/10/23 08:01:12;;;;;;;8.60;3.72;;;;;;;10.79;100.00;92731.13;6275583;22;20020;-79
2023/10/23 08:03:38;;;;;;;9.02;3.50;;;;;;;10.82;100.00;92735.78;6276193;22;20011;-79
2023/10/23 08:06:05;;;;;;;12.80;3.67;;;;;;;10.83;100.00;92732.13;6277119;22;20011;-79
2023/10/23 08:08:33;;;;;;;8.25;3.60;;;;;;;10.84;100.00;92731.84;6276658;22;20027;-80
2023/10/23 08:11:00;;;;;;;8.35;3.63;;;;;;;10.89;100.00;92749.31;6275824;22;20071;-80
2023/10/23 08:13:25;;;;;;;11.85;3.50;;;;;;;10.87;100.00;92748.03;6276611;22;20009;-80
2023/10/23 08:15:51;;;;;;;10.85;4.15;;;;;;;10.85;100.00;92735.22;6277469;22;20050;-80
2023/10/23 08:18:18;;;;;;;12.18;3.10;;;;;;;10.86;100.00;92736.78;6276660;22;20003;-80
2023/10/23 08:20:43;;;;;;;5.80;3.20;;;;;;;10.87;100.00;92740.19;6275801;22;20061;-79
2023/10/23 08:23:09;;;;;;;9.43;3.50;;;;;;;10.87;100.00;92733.09;6277739;22;20004;-80
2023/10/23 08:25:34;;;;;;;11.10;3.30;;;;;;;10.88;100.00;92737.31;6276933;22;20022;-80
2023/10/23 08:28:03;;;;;;;7.38;3.50;;;;;;;10.90;100.00;92734.38;6278007;22;20083;-79
2023/10/23 08:30:29;;;;;;;8.80;3.30;;;;;;;10.94;100.00;92740.63;6251869;22;20079;-79
2023/10/23 08:32:54;;;;;;;11.15;3.28;;;;;;;10.98;100.00;92744.25;6276461;22;20000;-79
2023/10/23 08:35:20;;;;;;;14.10;3.35;;;;;;;10.97;100.00;92753.16;6277447;22;20056;-80
2023/10/23 08:37:45;;;;;;;7.75;3.00;;;;;;;10.94;100.00;92749.28;6277050;22;20007;-79
2023/10/23 08:40:12;;;;;;;10.60;3.20;;;;;;;10.94;100.00;92754.53;6277270;22;20078;-79
2023/10/23 08:42:40;;;;;;;9.48;3.35;;;;;;;10.95;100.00;92757.91;6275983;22;20007;-79
2023/10/23 08:45:06;;;;;;;12.60;3.42;;;;;;;10.92;100.00;92745.34;6250046;22;20349;-79
2023/10/23 08:47:32;;;;;;;6.65;3.20;;;;;;;10.92;100.00;92748.78;6250196;22;20023;-80
2023/10/23 08:50:02;;;;;;;9.07;3.78;;;;;;;10.96;100.00;92762.06;6225191;22;20016;-80
2023/10/23 08:52:34;;;;;;;7.80;3.30;;;;;;;10.96;100.00;92762.06;6276441;22;20476;-80
2023/10/23 08:55:02;;;;;;;7.50;3.33;;;;;;;10.98;100.00;92757.34;6275392;22;20230;-79
2023/10/23 08:57:29;;;;;;;8.77;3.17;;;;;;;10.93;100.00;92752.94;6275885;22;20007;-79
2023/10/23 08:59:55;;;;;;;7.32;3.10;;;;;;;10.90;100.00;92743.03;6275944;22;20033;-80
2023/10/23 09:02:21;;;;;;;8.73;3.42;;;;;;;10.91;100.00;92743.81;6250091;22;20034;-80
2023/10/23 09:04:47;;;;;;;8.35;3.03;;;;;;;10.91;100.00;92749.81;6275924;22;20021;-79
2023/10/23 09:07:12;;;;;;;9.23;3.25;;;;;;;10.91;100.00;92749.81;6277021;22;20015;-80
2023/10/23 09:09:38;;;;;;;6.55;3.50;;;;;;;10.89;100.00;92748.53;6276662;22;20011;-79
2023/10/23 09:12:05;;;;;;;7.35;3.00;;;;;;;10.89;100.00;92740.69;6278942;22;20309;-80
2023/10/23 09:14:31;;;;;;;11.00;3.42;;;;;;;10.91;100.00;92743.81;6275394;22;20012;-80
2023/10/23 09:16:59;;;;;;;7.65;3.05;;;;;;;10.90;100.00;92735.19;6275391;22;20019;-79
2023/10/23 09:19:37;;;;;;;7.72;2.90;;;;;;;10.91;100.00;92728.09;6278155;22;20000;-80
2023/10/23 09:22:04;;;;;;;7.57;3.20;;;;;;;10.97;100.00;92721.75;6277139;22;20068;-78
2023/10/23 09:24:30;;;;;;;16.27;5.05;;;;;;;10.99;100.00;92733.50;6276363;22;20030;-80
2023/10/23 09:26:56;;;;;;;17.35;5.30;;;;;;;10.99;100.00;92736.09;6275358;22;19999;-80
2023/10/23 09:29:26;;;;;;;11.05;4.40;;;;;;;11.01;100.00;92734.00;6277441;22;20449;-80
2023/10/23 09:31:59;;;;;;;11.35;4.13;;;;;;;11.03;100.00;92737.09;6277290;22;20007;-79
2023/10/23 09:34:25;;;;;;;17.33;9.27;;;;;;;11.04;100.00;92741.28;6274882;22;20020;-80
2023/10/23 09:36:52;;;;;;;8.65;4.30;;;;;;;11.04;100.00;92732.63;6278053;22;20007;-80
2023/10/23 09:39:19;;;;;;;13.40;4.65;;;;;;;11.06;100.00;92743.63;6276288;22;20015;-80
2023/10/23 09:41:48;;;;;;;9.02;4.55;;;;;;;11.03;100.00;92737.09;6250120;22;20019;-80
2023/10/23 09:44:15;;;;;;;16.48;5.40;;;;;;;11.07;100.00;92731.28;6275857;22;20004;-80
2023/10/23 09:46:44;;;;;;;9.13;5.03;;;;;;;11.03;100.00;92729.25;6277548;22;20022;-80
2023/10/23 09:49:10;;;;;;;11.10;6.22;;;;;;;11.07;100.00;92732.06;6275527;22;20457;-80
2023/10/23 09:51:40;;;;;;;10.95;6.15;;;;;;;11.11;100.00;92727.81;6275942;22;20621;-80
2023/10/23 09:54:17;;;;;;;7.60;4.60;;;;;;;11.15;100.00;92720.97;6275035;22;20022;-80
2023/10/23 09:56:51;;;;;;;10.27;4.47;;;;;;;11.17;100.00;92723.31;6275655;22;20011;-80
2023/10/23 09:59:21;;;;;;;8.73;4.70;;;;;;;11.21;100.00;92722.47;6277860;22;20090;-79
2023/10/23 10:01:50;;;;;;;8.77;5.35;;;;;;;11.28;100.00;92732.59;6275493;22;20210;-80
2023/10/23 10:04:26;;;;;;;8.18;4.60;;;;;;;11.30;100.00;92734.91;6276801;22;20004;-80
2023/10/23 10:07:00;;;;;;;10.55;4.88;;;;;;;11.33;100.00;92729.88;6275347;22;20015;-80
2023/10/23 10:09:28;;;;;;;14.40;4.40;;;;;;;11.36;100.00;92724.06;6274959;22;20011;-79
2023/10/23 10:11:57;;;;;;;10.07;3.70;;;;;;;11.38;100.00;92732.44;6274697;22;20027;-80
2023/10/23 10:14:25;;;;;;;9.85;5.05;;;;;;;11.44;100.00;92731.28;6276937;22;20012;-80
2023/10/23 10:16:56;;;;;;;13.75;5.13;;;;;;;11.54;100.00;92729.59;6249892;22;20007;-80
2023/10/23 10:19:24;;;;;;;7.50;4.25;;;;;;;11.60;100.00;92738.94;6250033;22;20043;-80
2023/10/23 10:22:00;;;;;;;6.20;2.90;;;;;;;11.66;100.00;92743.03;6276668;22;20010;-79
2023/10/23 10:24:27;;;;;;;6.30;2.83;;;;;;;11.69;100.00;92747.72;6274951;22;20064;-80
2023/10/23 10:26:54;;;;;;;6.68;2.83;;;;;;;11.75;100.00;92735.28;6278120;22;19996;-80
2023/10/23 10:29:20;;;;;;;6.13;2.88;;;;;;;11.79;100.00;92739.66;6276000;22;20022;-80
2023/10/23 10:32:06;;;;;;;7.45;2.70;;;;;;;11.90;100.00;92731.69;6277453;22;20453;-79
2023/10/23 10:34:55;;;;;;;7.40;2.30;;;;;;;11.93;100.00;92723.22;6249087;22;20012;-80
2023/10/23 10:37:24;;;;;;;6.05;2.50;;;;;;;11.96;100.00;92720.03;6275938;22;20020;-80
2023/10/23 10:39:50;;;;;;;8.18;2.40;;;;;;;12.00;100.00;92732.28;6276057;22;20507;-80
2023/10/23 10:42:22;;;;;;;10.77;2.85;;;;;;;12.01;100.00;92722.56;6275169;22;20007;-80
2023/10/23 10:44:55;;;;;;;5.43;2.27;;;;;;;12.05;100.00;92723.56;6274406;22;20076;-80
2023/10/23 10:47:34;;;;;;;4.70;1.80;;;;;;;12.01;100.00;92727.81;6278194;22;20018;-80
2023/10/23 10:50:00;;;;;;;6.82;1.95;;;;;;;12.23;100.00;92719.31;6277119;22;20015;-80
2023/10/23 10:52:33;;;;;;;10.85;2.22;;;;;;;12.12;100.00;92729.19;6276537;22;20015;-80
2023/10/23 10:55:07;;;;;;;4.93;2.28;;;;;;;12.11;100.00;92726.84;6275971;22;20091;-80
2023/10/23 10:57:37;;;;;;;9.73;2.17;;;;;;;12.09;100.00;92719.25;6275322;22;20477;-80
2023/10/23 11:00:03;;;;;;;6.82;2.10;;;;;;;12.11;100.00;92708.50;6274711;22;20016;-80
2023/10/23 11:02:29;;;;;;;3.13;1.70;;;;;;;12.15;100.00;92707.63;6249699;22;20019;-80
2023/10/23 11:04:55;;;;;;;8.90;2.20;;;;;;;12.20;100.00;92715.38;6276188;22;20362;-80
2023/10/23 11:07:22;;;;;;;4.82;1.92;;;;;;;12.19;100.00;92716.47;6274547;22;20059;-79
2023/10/23 11:09:49;;;;;;;6.38;1.77;;;;;;;12.18;100.00;92717.56;6274242;22;20125;-80
2023/10/23 11:12:20;;;;;;;3.25;1.70;;;;;;;12.14;100.00;92710.56;6276728;22;20019;-79
2023/10/23 11:14:48;;;;;;;5.63;1.98;;;;;;;12.17;100.00;92713.34;6276218;22;20520;-80
2023/10/23 11:17:15;;;;;;;7.05;2.28;;;;;;;12.16;100.00;92708.38;6274635;22;20004;-80
2023/10/23 11:19:42;;;;;;;5.53;1.92;;;;;;;12.18;100.00;92701.81;6276445;22;20011;-80
2023/10/23 11:22:13;;;;;;;4.70;1.80;;;;;;;12.14;100.00;92695.56;6276299;22;20050;-80
2023/10/23 11:24:39;;;;;;;9.70;2.10;;;;;;;12.14;100.00;92689.56;6274378;22;20004;-80